Capt. C.j. — WDG9929 — position and weather

sailwx.info

Track history (hours):
 
Tides and Currents Weather Stations Pressure Air Temp Water Temp Dewpoint Dewpoint Depression Visibility Wind Speed Wind Dir Waves Ship Positions

Capt. C.j.

Owner: Daigle Towing Service LLC., Belle Chasse, LA. More information available from US FCC via Universal Licensing System and Coast Guard Vessel Documentation Center.

Last reported at 2018-Feb-17 05:24 UTC. Time now 2018-Feb-22 03:31 UTC.
Position N 29°37' W 090°21'.

Length 21 m.

Type: Fishing. MMSI: 367592640.

Date/timePositionNaut miles runAvg speedWind from/ knotsBaromVisibWave heightAir tempDewpointWater temp
2018-Feb-17 05:24N 29°37' W 090°21'6 6.5
2018-Feb-17 04:25N 29°33' W 090°27'3 8.5
2018-Feb-17 04:00N 29°34' W 090°31'4 8.4
2018-Feb-17 03:30N 29°35' W 090°35'4 7.9
2018-Feb-17 03:00N 29°36' W 090°40'3 5.5
2018-Feb-17 02:30N 29°36' W 090°43'4 7.6
2018-Feb-17 02:00N 29°33' W 090°45'4 8.5
2018-Feb-17 01:31N 29°32' W 090°50'  
2018-Feb-14 20:42N 29°32' W 090°51'2 7.5
2018-Feb-14 20:30N 29°32' W 090°49'3 6.4
2018-Feb-14 20:01N 29°33' W 090°45'3 5.5
2018-Feb-14 19:30N 29°35' W 090°43'0 0.4
2018-Feb-14 19:01N 29°35' W 090°43'0 0.0
2018-Feb-14 18:31N 29°35' W 090°43'0 0.0
2018-Feb-14 18:01N 29°35' W 090°43'0 0.0
2018-Feb-14 17:30N 29°35' W 090°43'0 0.0
2018-Feb-14 17:00N 29°35' W 090°43'0 0.0
2018-Feb-14 16:30N 29°35' W 090°43'2 3.0
2018-Feb-14 16:00N 29°34' W 090°42'0 0.6
2018-Feb-14 15:30N 29°34' W 090°42'0 0.0
2018-Feb-14 15:00N 29°34' W 090°42'0 0.0
2018-Feb-14 14:30N 29°34' W 090°42'0 0.0
2018-Feb-14 14:00N 29°34' W 090°42'0 0.0
2018-Feb-14 13:30N 29°34' W 090°42'0 0.0
2018-Feb-14 13:00N 29°34' W 090°42'0 0.0
2018-Feb-14 12:30N 29°34' W 090°42'0 0.0
2018-Feb-14 12:00N 29°34' W 090°42'0 0.0
2018-Feb-14 11:30N 29°34' W 090°42'0 0.0
2018-Feb-14 11:00N 29°34' W 090°42'0 0.0
2018-Feb-14 10:30N 29°34' W 090°42'0 0.0
2018-Feb-14 10:00N 29°34' W 090°42'0 0.0
2018-Feb-14 09:30N 29°34' W 090°42'0 0.0
2018-Feb-14 09:00N 29°34' W 090°42'0 0.0
2018-Feb-14 08:30N 29°34' W 090°42'0 0.0
2018-Feb-14 08:00N 29°34' W 090°42'0 0.0
2018-Feb-14 07:30N 29°34' W 090°42'0 0.0
2018-Feb-14 07:00N 29°34' W 090°42'0 0.0
2018-Feb-14 06:30N 29°34' W 090°42'0 0.0
2018-Feb-14 06:00N 29°34' W 090°42'0 0.0
2018-Feb-14 05:30N 29°34' W 090°42'0 0.0
2018-Feb-14 05:00N 29°34' W 090°42'0 0.0
2018-Feb-14 04:30N 29°34' W 090°42'0 0.0
2018-Feb-14 04:00N 29°34' W 090°42'0 0.0
2018-Feb-14 03:30N 29°34' W 090°42'0 0.0
2018-Feb-14 03:00N 29°34' W 090°42'0 0.0
2018-Feb-14 02:30N 29°34' W 090°42'2 3.1
2018-Feb-14 02:00N 29°32' W 090°42'4 8.2
2018-Feb-14 01:30N 29°28' W 090°43'4 8.2
2018-Feb-14 01:00N 29°24' W 090°44'  
Track history (hours):
 
Tides and Currents Weather Stations Pressure Air Temp Water Temp Dewpoint Dewpoint Depression Visibility Wind Speed Wind Dir Waves Ship Positions

Capt. C.j.

Owner: Daigle Towing Service LLC., Belle Chasse, LA. More information available from US FCC via Universal Licensing System and Coast Guard Vessel Documentation Center.

Last reported at 2018-Feb-17 05:24 UTC. Time now 2018-Feb-22 03:31 UTC.
Position N 29°37' W 090°21'.

Length 21 m.

Type: Fishing. MMSI: 367592640.

Date/timePositionNaut miles runAvg speedWind from/ knotsBaromVisibWave heightAir tempDewpointWater temp
2018-Feb-17 05:24N 29°37' W 090°21'6 6.5
2018-Feb-17 04:25N 29°33' W 090°27'3 8.5
2018-Feb-17 04:00N 29°34' W 090°31'4 8.4
2018-Feb-17 03:30N 29°35' W 090°35'4 7.9
2018-Feb-17 03:00N 29°36' W 090°40'3 5.5
2018-Feb-17 02:30N 29°36' W 090°43'4 7.6
2018-Feb-17 02:00N 29°33' W 090°45'4 8.5
2018-Feb-17 01:31N 29°32' W 090°50'  
2018-Feb-14 20:42N 29°32' W 090°51'2 7.5
2018-Feb-14 20:30N 29°32' W 090°49'3 6.4
2018-Feb-14 20:01N 29°33' W 090°45'3 5.5
2018-Feb-14 19:30N 29°35' W 090°43'0 0.4
2018-Feb-14 19:01N 29°35' W 090°43'0 0.0
2018-Feb-14 18:31N 29°35' W 090°43'0 0.0
2018-Feb-14 18:01N 29°35' W 090°43'0 0.0
2018-Feb-14 17:30N 29°35' W 090°43'0 0.0
2018-Feb-14 17:00N 29°35' W 090°43'0 0.0
2018-Feb-14 16:30N 29°35' W 090°43'2 3.0
2018-Feb-14 16:00N 29°34' W 090°42'0 0.6
2018-Feb-14 15:30N 29°34' W 090°42'0 0.0
2018-Feb-14 15:00N 29°34' W 090°42'0 0.0
2018-Feb-14 14:30N 29°34' W 090°42'0 0.0
2018-Feb-14 14:00N 29°34' W 090°42'0 0.0
2018-Feb-14 13:30N 29°34' W 090°42'0 0.0
2018-Feb-14 13:00N 29°34' W 090°42'0 0.0
2018-Feb-14 12:30N 29°34' W 090°42'0 0.0
2018-Feb-14 12:00N 29°34' W 090°42'0 0.0
2018-Feb-14 11:30N 29°34' W 090°42'0 0.0
2018-Feb-14 11:00N 29°34' W 090°42'0 0.0
2018-Feb-14 10:30N 29°34' W 090°42'0 0.0
2018-Feb-14 10:00N 29°34' W 090°42'0 0.0
2018-Feb-14 09:30N 29°34' W 090°42'0 0.0
2018-Feb-14 09:00N 29°34' W 090°42'0 0.0
2018-Feb-14 08:30N 29°34' W 090°42'0 0.0
2018-Feb-14 08:00N 29°34' W 090°42'0 0.0
2018-Feb-14 07:30N 29°34' W 090°42'0 0.0
2018-Feb-14 07:00N 29°34' W 090°42'0 0.0
2018-Feb-14 06:30N 29°34' W 090°42'0 0.0
2018-Feb-14 06:00N 29°34' W 090°42'0 0.0
2018-Feb-14 05:30N 29°34' W 090°42'0 0.0
2018-Feb-14 05:00N 29°34' W 090°42'0 0.0
2018-Feb-14 04:30N 29°34' W 090°42'0 0.0
2018-Feb-14 04:00N 29°34' W 090°42'0 0.0
2018-Feb-14 03:30N 29°34' W 090°42'0 0.0
2018-Feb-14 03:00N 29°34' W 090°42'0 0.0
2018-Feb-14 02:30N 29°34' W 090°42'2 3.1
2018-Feb-14 02:00N 29°32' W 090°42'4 8.2
2018-Feb-14 01:30N 29°28' W 090°43'4 8.2
2018-Feb-14 01:00N 29°24' W 090°44'  

Dump ship's entire track history